Aviation Digital Data Service (ADDS)

Output produced by METARs form (1405 UTC 19 January 2019)
found at http://www.aviationweather.gov/metar/data/
 
Forecast for: LFML (MARSEILLE/MARIGN, FR)
Text: TAF LFML 190800Z 1909/2015 VRB05KT CAVOK TX11/2015Z TN03/2005Z
Forecast period: 0900 to 2200 UTC 19 January 2019
Forecast type: FROM: standard forecast or significant change
Winds: variable direction winds at 6 MPH (5 knots; 2.6 m/s)
Visibility: 6 or more miles 10+ km)
Ceiling: unknown
Clouds: missing
Weather: no significant weather forecast for this period
Text: BECMG 1922/1924 09010KT BKN014
Forecast period: 2200 UTC 19 January 2019 to 1000 UTC 20 January 2019
Forecast type: BECOMING: Conditions expected to become as follows by 0000 UTC 20 January 2019
Winds: from the E (90 degrees) at 12 MPH (10 knots; 5.1 m/s)
Visibility: 6 or more miles 10+ km)
Ceiling: 1400 feet AGL
Clouds: broken clouds at 1400 feet AGL
Weather: no significant weather forecast for this period
Text: BECMG 2010/2012 BKN020
Forecast period: 1000 to 1500 UTC 20 January 2019
Forecast type: BECOMING: Conditions expected to become as follows by 1200 UTC 20 January 2019
Winds: from the E (90 degrees) at 12 MPH (10 knots; 5.1 m/s)
Visibility: 6 or more miles 10+ km)
Ceiling: 2000 feet AGL
Clouds: broken clouds at 2000 feet AGL
Weather: no significant weather forecast for this period